Wetterdaten: Woche 02.06.03 - 08.06.03 (KW23)
Datum Zeit Temperatur Luftfeuchte Luftdruck Regenmenge Wind Richtung Taupunkt Windchill
02.06.2003 00:00 16.5 C 83 % 1010.8 hPa 0.0 l/m 1.0 km/h (0 Bft) O-SO 13.5 C 16.5 C
02.06.2003 01:00 15.8 C 87 % 1011.0 hPa 0.0 l/m 4.3 km/h (1 Bft) O-SO 13.7 C 15.8 C
02.06.2003 02:00 15.2 C 87 % 1010.6 hPa 0.0 l/m 1.0 km/h (0 Bft) O-SO 13.0 C 15.2 C
02.06.2003 03:00 14.4 C 94 % 1010.1 hPa 0.0 l/m 1.4 km/h (1 Bft) O-SO 13.4 C 14.4 C
02.06.2003 04:00 13.8 C 96 % 1010.9 hPa 0.0 l/m 1.1 km/h (0 Bft) O-SO 13.1 C 13.8 C
02.06.2003 05:00 14.2 C 96 % 1011.3 hPa 0.0 l/m 1.7 km/h (1 Bft) O-SO 13.6 C 14.2 C
02.06.2003 06:00 14.5 C 93 % 1011.1 hPa 0.0 l/m 3.5 km/h (1 Bft) O-SO 13.4 C 14.5 C
02.06.2003 07:00 15.9 C 88 % 1011.6 hPa 0.0 l/m 0.3 km/h (0 Bft) SO 13.8 C 15.9 C
02.06.2003 08:00 17.8 C 80 % 1012.1 hPa 0.0 l/m 0.0 km/h (0 Bft) N 14.2 C 17.8 C
02.06.2003 09:00 20.6 C 69 % 1012.2 hPa 0.0 l/m 2.1 km/h (1 Bft) O-SO 14.6 C 20.6 C
02.06.2003 10:00 23.0 C 60 % 1012.2 hPa 0.0 l/m 4.3 km/h (1 Bft) O-SO 14.7 C 23.0 C
02.06.2003 11:00 24.7 C 53 % 1012.0 hPa 0.0 l/m 4.5 km/h (1 Bft) SO 14.4 C 24.7 C
02.06.2003 12:00 26.3 C 42 % 1011.4 hPa 0.0 l/m 4.2 km/h (1 Bft) N-NO 12.2 C 26.3 C
02.06.2003 13:00 28.0 C 38 % 1011.3 hPa 0.0 l/m 9.0 km/h (2 Bft) SO 12.5 C 28.0 C
02.06.2003 14:00 27.9 C 39 % 1011.1 hPa 0.0 l/m 11.4 km/h (2 Bft) NW 12.8 C 27.9 C
02.06.2003 15:00 23.4 C 57 % 1011.9 hPa 0.0 l/m 31.1 km/h (5 Bft) NW 14.5 C 23.4 C
02.06.2003 16:00 25.2 C 55 % 1012.2 hPa 0.0 l/m 3.1 km/h (1 Bft) O-SO 15.6 C 25.2 C
02.06.2003 17:00 25.8 C 50 % 1012.2 hPa 0.0 l/m 9.3 km/h (2 Bft) W-NW 14.6 C 25.8 C
02.06.2003 18:00 25.6 C 45 % 1012.2 hPa 0.0 l/m 5.7 km/h (1 Bft) W-NW 12.6 C 25.6 C
02.06.2003 19:00 24.7 C 51 % 1012.2 hPa 0.0 l/m 5.5 km/h (1 Bft) W-NW 13.8 C 24.7 C
02.06.2003 20:00 23.0 C 56 % 1013.1 hPa 0.0 l/m 2.0 km/h (1 Bft) SO 13.8 C 23.0 C
02.06.2003 21:00 20.7 C 60 % 1013.2 hPa 0.0 l/m 7.0 km/h (2 Bft) SO 12.5 C 20.7 C
02.06.2003 22:00 19.4 C 67 % 1014.0 hPa 0.0 l/m 8.6 km/h (2 Bft) SO 13.0 C 19.4 C
02.06.2003 23:00 18.1 C 75 % 1014.2 hPa 0.0 l/m 4.8 km/h (1 Bft) O-SO 13.6 C 18.1 C
03.06.2003 00:00 17.1 C 80 % 1014.2 hPa 0.0 l/m 1.4 km/h (1 Bft) O-SO 13.6 C 17.1 C
03.06.2003 01:00 16.3 C 87 % 1014.0 hPa 0.0 l/m 3.4 km/h (1 Bft) O-SO 14.2 C 16.3 C
03.06.2003 02:00 15.1 C 92 % 1014.2 hPa 0.0 l/m 0.0 km/h (0 Bft) N 13.7 C 15.1 C
03.06.2003 03:00 14.6 C 96 % 1013.8 hPa 0.0 l/m 3.8 km/h (1 Bft) O-SO 13.9 C 14.6 C
03.06.2003 04:00 14.2 C 97 % 1013.4 hPa 0.0 l/m 0.0 km/h (0 Bft) N 13.7 C 14.2 C
03.06.2003 05:00 13.7 C 98 % 1013.3 hPa 0.0 l/m 0.0 km/h (0 Bft) N 13.4 C 13.7 C
03.06.2003 06:00 14.0 C 98 % 1014.2 hPa 0.0 l/m 0.7 km/h (0 Bft) O-SO 13.7 C 14.0 C
03.06.2003 07:00 15.2 C 93 % 1014.2 hPa 0.0 l/m 0.1 km/h (0 Bft) N 14.1 C 15.2 C
03.06.2003 08:00 16.9 C 86 % 1014.2 hPa 0.0 l/m 0.1 km/h (0 Bft) N 14.6 C 16.9 C
03.06.2003 09:00 19.4 C 72 % 1014.2 hPa 0.0 l/m 1.5 km/h (1 Bft) W-NW 14.3 C 19.4 C
03.06.2003 10:00 21.5 C 63 % 1014.2 hPa 0.0 l/m 1.9 km/h (1 Bft) W-NW 14.2 C 21.5 C
03.06.2003 11:00 23.3 C 55 % 1014.0 hPa 0.0 l/m 2.9 km/h (1 Bft) W-NW 13.7 C 23.3 C
03.06.2003 12:00 25.2 C 49 % 1013.5 hPa 0.0 l/m 2.8 km/h (1 Bft) NW 13.5 C 25.2 C
03.06.2003 13:00 26.8 C 45 % 1013.2 hPa 0.0 l/m 0.9 km/h (0 Bft) NW 13.8 C 26.8 C
03.06.2003 14:00 28.1 C 40 % 1013.2 hPa 0.0 l/m 2.5 km/h (1 Bft) W-NW 13.3 C 28.1 C
03.06.2003 15:00 29.3 C 37 % 1012.3 hPa 0.0 l/m 3.7 km/h (1 Bft) O-SO 13.2 C 29.3 C
03.06.2003 16:00 29.4 C 31 % 1012.2 hPa 0.0 l/m 4.2 km/h (1 Bft) O-SO 10.7 C 29.4 C
03.06.2003 17:00 28.7 C 33 % 1012.2 hPa 0.0 l/m 1.9 km/h (1 Bft) O-SO 10.6 C 28.7 C
03.06.2003 18:00 27.0 C 39 % 1012.2 hPa 0.0 l/m 0.3 km/h (0 Bft) SO 11.8 C 27.0 C
03.06.2003 19:00 25.4 C 47 % 1013.1 hPa 0.0 l/m 2.2 km/h (1 Bft) SO 13.1 C 25.4 C
03.06.2003 20:00 24.1 C 52 % 1013.2 hPa 0.0 l/m 1.3 km/h (1 Bft) O-SO 13.5 C 24.1 C
03.06.2003 21:00 21.2 C 64 % 1013.6 hPa 0.0 l/m 1.2 km/h (1 Bft) O-SO 14.0 C 21.2 C
03.06.2003 22:00 19.7 C 68 % 1014.2 hPa 0.0 l/m 3.3 km/h (1 Bft) O-SO 13.7 C 19.7 C
03.06.2003 23:00 18.8 C 74 % 1014.2 hPa 0.0 l/m 3.6 km/h (1 Bft) O-SO 14.1 C 18.8 C
04.06.2003 00:00 18.3 C 79 % 1015.2 hPa 0.0 l/m 2.5 km/h (1 Bft) O-SO 14.6 C 18.3 C
04.06.2003 01:00 18.3 C 82 % 1015.7 hPa 0.0 l/m 1.4 km/h (1 Bft) O-SO 15.1 C 18.3 C
04.06.2003 02:00 19.2 C 82 % 1016.3 hPa 0.0 l/m 2.0 km/h (1 Bft) O-SO 15.9 C 19.2 C
04.06.2003 03:00 18.9 C 82 % 1015.4 hPa 0.0 l/m 0.0 km/h (0 Bft) N 15.8 C 18.9 C
04.06.2003 04:00 17.7 C 91 % 1015.3 hPa 0.0 l/m 4.3 km/h (1 Bft) O-SO 16.2 C 17.7 C
04.06.2003 05:00 16.9 C 92 % 1015.3 hPa 0.0 l/m 2.0 km/h (1 Bft) O-SO 15.7 C 16.9 C
04.06.2003 06:00 17.5 C 89 % 1015.5 hPa 0.0 l/m 0.0 km/h (0 Bft) N 15.6 C 17.5 C
04.06.2003 07:00 17.9 C 87 % 1016.1 hPa 0.0 l/m 0.0 km/h (0 Bft) N 15.7 C 17.9 C
04.06.2003 08:00 19.4 C 79 % 1016.3 hPa 0.0 l/m 0.2 km/h (0 Bft) O-SO 15.6 C 19.4 C
04.06.2003 09:00 21.4 C 67 % 1016.3 hPa 0.0 l/m 0.3 km/h (0 Bft) W-NW 15.1 C 21.4 C
04.06.2003 10:00 23.4 C 58 % 1015.7 hPa 0.0 l/m 0.7 km/h (0 Bft) NW 14.5 C 23.4 C
04.06.2003 11:00 25.3 C 52 % 1015.3 hPa 0.0 l/m 3.1 km/h (1 Bft) W-NW 14.6 C 25.3 C
04.06.2003 12:00 27.4 C 45 % 1015.3 hPa 0.0 l/m 2.7 km/h (1 Bft) W-NW 14.3 C 27.4 C
04.06.2003 13:00 29.7 C 38 % 1015.3 hPa 0.0 l/m 5.0 km/h (1 Bft) O-SO 13.8 C 29.7 C
04.06.2003 14:00 31.0 C 32 % 1014.8 hPa 0.0 l/m 2.7 km/h (1 Bft) O-SO 12.4 C 31.0 C
04.06.2003 15:00 31.8 C 27 % 1014.2 hPa 0.0 l/m 5.6 km/h (1 Bft) NW 10.5 C 31.8 C
04.06.2003 16:00 32.0 C 26 % 1014.2 hPa 0.0 l/m 10.9 km/h (2 Bft) W-NW 10.3 C 32.0 C
04.06.2003 17:00 31.4 C 29 % 1014.2 hPa 0.0 l/m 4.1 km/h (1 Bft) W 11.0 C 31.4 C
04.06.2003 18:00 30.6 C 36 % 1015.1 hPa 0.0 l/m 5.7 km/h (1 Bft) W-NW 13.8 C 30.6 C
04.06.2003 19:00 28.9 C 44 % 1015.3 hPa 0.0 l/m 14.9 km/h (3 Bft) NW 15.3 C 28.9 C
04.06.2003 20:00 26.8 C 50 % 1015.3 hPa 0.0 l/m 3.7 km/h (1 Bft) O-SO 15.4 C 26.8 C
04.06.2003 21:00 24.3 C 57 % 1016.3 hPa 0.0 l/m 1.4 km/h (1 Bft) O-SO 15.2 C 24.3 C
04.06.2003 22:00 22.0 C 68 % 1016.3 hPa 0.0 l/m 0.6 km/h (0 Bft) O-SO 15.7 C 22.0 C
04.06.2003 23:00 20.9 C 72 % 1017.2 hPa 0.0 l/m 0.6 km/h (0 Bft) O-SO 15.7 C 20.9 C
05.06.2003 00:00 19.9 C 77 % 1017.3 hPa 0.0 l/m 2.6 km/h (1 Bft) O-SO 15.7 C 19.9 C
05.06.2003 01:00 18.8 C 85 % 1017.3 hPa 0.0 l/m 3.9 km/h (1 Bft) O-SO 16.1 C 18.8 C
05.06.2003 02:00 17.8 C 87 % 1017.3 hPa 0.0 l/m 2.5 km/h (1 Bft) O-SO 15.6 C 17.8 C
05.06.2003 03:00 17.2 C 89 % 1017.3 hPa 0.0 l/m 0.8 km/h (0 Bft) O-SO 15.4 C 17.2 C
05.06.2003 04:00 16.7 C 93 % 1017.3 hPa 0.0 l/m 1.1 km/h (1 Bft) O-SO 15.6 C 16.7 C
05.06.2003 05:00 16.3 C 97 % 1018.0 hPa 0.0 l/m 0.9 km/h (0 Bft) O-SO 15.8 C 16.3 C
05.06.2003 06:00 17.2 C 91 % 1018.4 hPa 0.0 l/m 0.0 km/h (0 Bft) N 15.7 C 17.2 C
05.06.2003 07:00 18.5 C 85 % 1018.9 hPa 0.0 l/m 0.3 km/h (0 Bft) O-SO 15.8 C 18.5 C
05.06.2003 08:00 20.3 C 74 % 1019.4 hPa 0.0 l/m 0.1 km/h (0 Bft) N 15.4 C 20.3 C
05.06.2003 09:00 22.9 C 64 % 1019.4 hPa 0.0 l/m 1.1 km/h (0 Bft) SO 15.6 C 22.9 C
05.06.2003 10:00 24.8 C 44 % 1019.4 hPa 0.0 l/m 11.2 km/h (2 Bft) W-NW 11.4 C 24.8 C
05.06.2003 11:00 25.8 C 36 % 1019.4 hPa 0.0 l/m 16.8 km/h (3 Bft) NW 9.5 C 25.8 C
05.06.2003 12:00 26.8 C 33 % 1019.4 hPa 0.0 l/m 13.0 km/h (3 Bft) W-NW 9.3 C 26.8 C
05.06.2003 13:00 27.9 C 32 % 1019.4 hPa 0.0 l/m 23.3 km/h (4 Bft) NW 9.5 C 27.9 C
05.06.2003 14:00 28.6 C 30 % 1018.5 hPa 0.0 l/m 24.7 km/h (4 Bft) NW 9.4 C 28.6 C
05.06.2003 15:00 29.9 C 28 % 1018.4 hPa 0.0 l/m 16.5 km/h (3 Bft) NW 9.5 C 29.9 C
05.06.2003 16:00 30.1 C 29 % 1017.7 hPa 0.0 l/m 14.1 km/h (3 Bft) W-NW 9.8 C 30.1 C
05.06.2003 17:00 29.9 C 31 % 1017.3 hPa 0.0 l/m 17.4 km/h (3 Bft) W-NW 10.9 C 29.9 C
05.06.2003 18:00 29.5 C 34 % 1017.3 hPa 0.0 l/m 20.2 km/h (4 Bft) W-NW 11.7 C 29.5 C
05.06.2003 19:00 27.6 C 43 % 1017.4 hPa 0.0 l/m 19.8 km/h (3 Bft) W-NW 13.8 C 27.6 C
05.06.2003 20:00 26.1 C 41 % 1018.4 hPa 0.0 l/m 18.3 km/h (3 Bft) W-NW 11.9 C 26.1 C
05.06.2003 21:00 25.1 C 46 % 1018.6 hPa 0.0 l/m 11.1 km/h (2 Bft) NW 12.8 C 25.1 C
05.06.2003 22:00 23.9 C 48 % 1019.6 hPa 0.0 l/m 0.5 km/h (0 Bft) NO 12.1 C 23.9 C
05.06.2003 23:00 19.6 C 84 % 1021.0 hPa 1.5 l/m 7.5 km/h (2 Bft) O-SO 16.8 C 19.6 C
06.06.2003 00:00 18.8 C 96 % 1021.9 hPa 3.3 l/m 1.4 km/h (1 Bft) O-SO 18.1 C 18.8 C
06.06.2003 01:00 18.6 C 100 % 1021.7 hPa 0.9 l/m 1.1 km/h (1 Bft) O-SO 18.5 C 18.6 C
06.06.2003 02:00 18.6 C 100 % 1021.5 hPa 1.2 l/m 0.0 km/h (0 Bft) N 18.6 C 18.6 C
06.06.2003 03:00 18.4 C 100 % 1021.5 hPa 0.9 l/m 0.0 km/h (0 Bft) N 18.4 C 18.4 C
06.06.2003 04:00 18.3 C 100 % 1021.5 hPa 0.0 l/m 0.0 km/h (0 Bft) N 18.3 C 18.3 C
06.06.2003 05:00 18.1 C 100 % 1021.5 hPa 0.3 l/m 0.0 km/h (0 Bft) N 18.1 C 18.1 C
06.06.2003 06:00 18.2 C 100 % 1020.6 hPa 0.0 l/m 0.0 km/h (0 Bft) N 18.2 C 18.2 C
06.06.2003 07:00 18.6 C 100 % 1020.5 hPa 0.0 l/m 0.0 km/h (0 Bft) N 18.6 C 18.6 C
06.06.2003 08:00 19.2 C 96 % 1020.5 hPa 0.0 l/m 0.1 km/h (0 Bft) N 18.5 C 19.2 C
06.06.2003 09:00 19.9 C 87 % 1020.5 hPa 0.0 l/m 0.0 km/h (0 Bft) N 17.6 C 19.9 C
06.06.2003 10:00 21.0 C 78 % 1020.5 hPa 0.0 l/m 0.1 km/h (0 Bft) W-SW 17.0 C 21.0 C
06.06.2003 11:00 22.9 C 71 % 1020.6 hPa 0.0 l/m 2.2 km/h (1 Bft) SO 17.2 C 22.9 C
06.06.2003 12:00 25.0 C 61 % 1020.8 hPa 0.0 l/m 5.1 km/h (1 Bft) O-SO 17.0 C 25.0 C
06.06.2003 13:00 25.7 C 57 % 1020.5 hPa 0.0 l/m 2.9 km/h (1 Bft) O-SO 16.4 C 25.7 C
06.06.2003 14:00 22.9 C 66 % 1020.5 hPa 0.3 l/m 3.1 km/h (1 Bft) N-NW 16.2 C 22.9 C
06.06.2003 15:00 24.5 C 64 % 1019.7 hPa 0.0 l/m 2.0 km/h (1 Bft) NW 17.2 C 24.5 C
06.06.2003 16:00 26.1 C 58 % 1019.4 hPa 0.0 l/m 3.3 km/h (1 Bft) N 17.1 C 26.1 C
06.06.2003 17:00 26.7 C 54 % 1018.9 hPa 0.0 l/m 1.7 km/h (1 Bft) N-NO 16.6 C 26.7 C
06.06.2003 18:00 26.1 C 55 % 1018.4 hPa 0.0 l/m 1.3 km/h (1 Bft) N-NO 16.3 C 26.1 C
06.06.2003 19:00 25.2 C 61 % 1018.4 hPa 0.0 l/m 1.5 km/h (1 Bft) O-NO 17.0 C 25.2 C
06.06.2003 20:00 23.8 C 67 % 1018.9 hPa 0.0 l/m 0.2 km/h (0 Bft) O 17.3 C 23.8 C
06.06.2003 21:00 22.2 C 72 % 1019.4 hPa 0.0 l/m 0.3 km/h (0 Bft) N-NO 17.0 C 22.2 C
06.06.2003 22:00 20.5 C 83 % 1019.4 hPa 0.0 l/m 1.1 km/h (0 Bft) SO 17.5 C 20.5 C
06.06.2003 23:00 19.8 C 87 % 1019.4 hPa 0.0 l/m 2.2 km/h (1 Bft) SO 17.6 C 19.8 C
07.06.2003 00:00 19.6 C 86 % 1020.1 hPa 0.0 l/m 0.0 km/h (0 Bft) N 17.3 C 19.6 C
07.06.2003 01:00 18.9 C 90 % 1019.7 hPa 0.0 l/m 0.0 km/h (0 Bft) N 17.2 C 18.9 C
07.06.2003 02:00 18.3 C 94 % 1019.4 hPa 0.0 l/m 1.7 km/h (1 Bft) SO 17.3 C 18.3 C
07.06.2003 03:00 18.3 C 93 % 1019.4 hPa 0.0 l/m 2.0 km/h (1 Bft) SO 17.1 C 18.3 C
07.06.2003 04:00 18.1 C 92 % 1019.4 hPa 0.0 l/m 0.0 km/h (0 Bft) N 16.7 C 18.1 C
07.06.2003 05:00 17.9 C 95 % 1019.4 hPa 0.0 l/m 1.7 km/h (1 Bft) SO 17.1 C 17.9 C
07.06.2003 06:00 18.3 C 93 % 1019.4 hPa 0.0 l/m 1.2 km/h (1 Bft) SO 17.1 C 18.3 C
07.06.2003 07:00 19.1 C 87 % 1019.4 hPa 0.0 l/m 0.3 km/h (0 Bft) SO 17.0 C 19.1 C
07.06.2003 08:00 20.3 C 79 % 1019.4 hPa 0.0 l/m 0.5 km/h (0 Bft) O-SO 16.5 C 20.3 C
07.06.2003 09:00 21.6 C 72 % 1019.4 hPa 0.0 l/m 1.3 km/h (1 Bft) O-SO 16.4 C 21.6 C
07.06.2003 10:00 22.8 C 64 % 1019.4 hPa 0.0 l/m 0.7 km/h (0 Bft) W-NW 15.7 C 22.8 C
07.06.2003 11:00 24.6 C 58 % 1018.5 hPa 0.0 l/m 1.3 km/h (1 Bft) W-NW 15.7 C 24.6 C
07.06.2003 12:00 26.6 C 51 % 1018.3 hPa 0.0 l/m 2.7 km/h (1 Bft) W-NW 15.6 C 26.6 C
07.06.2003 13:00 28.4 C 46 % 1017.3 hPa 0.0 l/m 5.8 km/h (2 Bft) O-SO 15.6 C 28.4 C
07.06.2003 14:00 29.6 C 41 % 1017.3 hPa 0.0 l/m 4.9 km/h (1 Bft) O-SO 15.0 C 29.6 C
07.06.2003 15:00 29.8 C 39 % 1016.5 hPa 0.0 l/m 3.2 km/h (1 Bft) N-NW 14.3 C 29.8 C
07.06.2003 16:00 30.4 C 38 % 1016.3 hPa 0.0 l/m 3.9 km/h (1 Bft) N-NW 14.4 C 30.4 C
07.06.2003 17:00 30.2 C 42 % 1016.3 hPa 0.0 l/m 1.8 km/h (1 Bft) N-NW 15.7 C 30.2 C
07.06.2003 18:00 28.6 C 45 % 1016.1 hPa 0.0 l/m 0.9 km/h (0 Bft) N-NO 15.5 C 28.6 C
07.06.2003 19:00 28.0 C 49 % 1016.2 hPa 0.0 l/m 0.8 km/h (0 Bft) NO 16.3 C 28.0 C
07.06.2003 20:00 27.1 C 53 % 1016.3 hPa 0.0 l/m 1.9 km/h (1 Bft) N-NO 16.6 C 27.1 C
07.06.2003 21:00 24.1 C 59 % 1016.4 hPa 0.0 l/m 1.0 km/h (0 Bft) N 15.6 C 24.1 C
07.06.2003 22:00 22.3 C 64 % 1017.3 hPa 0.0 l/m 1.5 km/h (1 Bft) SO 15.0 C 22.3 C
07.06.2003 23:00 20.9 C 70 % 1017.2 hPa 0.0 l/m 3.5 km/h (1 Bft) O-SO 15.3 C 20.9 C
08.06.2003 00:00 20.1 C 73 % 1016.3 hPa 0.0 l/m 1.6 km/h (1 Bft) SO 15.1 C 20.1 C
08.06.2003 01:00 19.1 C 81 % 1016.2 hPa 0.0 l/m 1.2 km/h (1 Bft) SO 15.7 C 19.1 C
08.06.2003 02:00 18.0 C 86 % 1015.3 hPa 0.0 l/m 1.0 km/h (0 Bft) SO 15.6 C 18.0 C
08.06.2003 03:00 17.2 C 93 % 1015.3 hPa 0.0 l/m 1.4 km/h (1 Bft) SO 16.0 C 17.2 C
08.06.2003 04:00 16.3 C 97 % 1015.3 hPa 0.0 l/m 1.1 km/h (0 Bft) SO 15.8 C 16.3 C
08.06.2003 05:00 16.0 C 97 % 1015.5 hPa 0.0 l/m 0.2 km/h (0 Bft) SO 15.6 C 16.0 C
08.06.2003 06:00 16.3 C 95 % 1016.3 hPa 0.0 l/m 0.1 km/h (0 Bft) SO 15.5 C 16.3 C
08.06.2003 07:00 18.0 C 88 % 1016.3 hPa 0.0 l/m 0.0 km/h (0 Bft) N 16.0 C 18.0 C
08.06.2003 08:00 19.7 C 79 % 1016.3 hPa 0.0 l/m 0.3 km/h (0 Bft) SO 16.0 C 19.7 C
08.06.2003 09:00 20.9 C 75 % 1016.3 hPa 0.0 l/m 1.1 km/h (0 Bft) O-SO 16.3 C 20.9 C
08.06.2003 10:00 22.5 C 68 % 1016.3 hPa 0.0 l/m 0.4 km/h (0 Bft) N 16.4 C 22.5 C
08.06.2003 11:00 23.8 C 64 % 1016.3 hPa 0.0 l/m 6.1 km/h (2 Bft) SO 16.6 C 23.8 C
08.06.2003 12:00 26.3 C 56 % 1015.5 hPa 0.0 l/m 5.3 km/h (1 Bft) SO 16.9 C 26.3 C
08.06.2003 13:00 26.8 C 55 % 1015.3 hPa 0.0 l/m 9.4 km/h (2 Bft) SO 17.0 C 26.8 C
08.06.2003 14:00 27.1 C 55 % 1014.7 hPa 0.0 l/m 5.2 km/h (1 Bft) O-SO 17.2 C 27.1 C
08.06.2003 15:00 27.8 C 50 % 1014.2 hPa 0.0 l/m 4.9 km/h (1 Bft) SO 16.5 C 27.8 C
08.06.2003 16:00 27.4 C 51 % 1014.1 hPa 0.0 l/m 2.5 km/h (1 Bft) O-SO 16.2 C 27.4 C
08.06.2003 17:00 28.8 C 43 % 1013.4 hPa 0.0 l/m 1.7 km/h (1 Bft) W-NW 15.0 C 28.8 C
08.06.2003 18:00 29.3 C 40 % 1013.8 hPa 0.0 l/m 3.6 km/h (1 Bft) W-NW 14.2 C 29.3 C
08.06.2003 19:00 22.8 C 64 % 1014.8 hPa 8.7 l/m 17.7 km/h (3 Bft) NW 14.6 C 22.8 C
08.06.2003 20:00 20.7 C 92 % 1015.3 hPa 0.0 l/m 4.5 km/h (1 Bft) O-SO 19.4 C 20.7 C
08.06.2003 21:00 19.5 C 98 % 1015.7 hPa 0.0 l/m 5.0 km/h (1 Bft) O-SO 19.2 C 19.5 C
08.06.2003 22:00 18.4 C 100 % 1017.4 hPa 0.0 l/m 4.5 km/h (1 Bft) O-SO 18.4 C 18.4 C
08.06.2003 23:00 18.2 C 100 % 1017.7 hPa 0.0 l/m 4.9 km/h (1 Bft) O-SO 18.2 C 18.2 C
Min-Datum _ 03.06.03 04.06.03 02.06.03 - 02.06.03 - 05.06.03 03.06.03
_ Min-Zeit 05:31 15:22 03:00 - 00:01 - 14:52 05:31
Minimum _ 13.4 C 25 % 1010.1 hPa - 0.0 km/h (0 Bft) - 7.9 C 13.4 C
Max-Datum _ 04.06.03 03.06.03 06.06.03 08.06.03 08.06.03 - 08.06.03 04.06.03
_ Max-Zeit 16:35 05:49 00:41 19:34 19:28 - 20:31 16:35
Maximum _ 32.4 C 100 % 1022.5 hPa 8.7 l/m 58.9 km/h
NW (7 Bft)
- 20.0 C 32.4 C
Durchschnitt _ 22.2 C 68 % 1016.2 hPa #17.1 l/m 3.7 km/h (1 Bft) O-SO 14.9 C 22.2 C

Durchschnitt Minimum Temp.21.3 C
Durchschnitt Maximum Temp.23.2 C
© Kaiko 2003